Time;durP1;ratioP1;P1;durP2;ratioP2;P2;SDS_P1;SDS_P2;PMS_P1;PMS_P2;Temp;Humidity;BMP_temperature;BMP_pressure;BME280_temperature;BME280_humidity;BME280_pressure;Samples;Min_cycle;Max_cycle;Signal;HPM_P1;HPM_P2
2022/08/31 00:06:00;;;;;;;4.50;1.95;;;;;;;20.16;59.73;100662.19;6035770;23;97507;-83
2022/08/31 00:08:26;;;;;;;6.55;2.10;;;;;;;20.26;59.65;100674.78;5984405;23;97203;-82
2022/08/31 00:10:53;;;;;;;2.58;1.58;;;;;;;20.27;59.98;100671.13;6007420;23;97097;-84
2022/08/31 00:13:20;;;;;;;3.90;1.60;;;;;;;20.25;60.05;100667.75;5983838;23;101538;-82
2022/08/31 00:15:46;;;;;;;4.07;1.70;;;;;;;20.27;60.51;100673.81;6008967;23;100757;-82
2022/08/31 00:18:13;;;;;;;6.32;2.47;;;;;;;20.21;60.46;100660.06;6009122;23;96648;-82
2022/08/31 00:20:39;;;;;;;4.43;1.60;;;;;;;20.27;60.71;100670.28;6033439;23;96842;-82
2022/08/31 00:23:07;;;;;;;3.17;1.58;;;;;;;20.15;60.58;100640.00;6008405;23;101183;-82
2022/08/31 00:25:34;;;;;;;4.05;1.75;;;;;;;20.24;60.62;100659.84;5985190;23;100204;-83
2022/08/31 00:28:00;;;;;;;4.75;2.55;;;;;;;20.06;61.18;100653.97;5983320;23;97077;-83
2022/08/31 00:30:25;;;;;;;4.60;1.80;;;;;;;20.20;60.80;100663.69;6009489;23;96814;-83
2022/08/31 00:32:51;;;;;;;3.63;1.88;;;;;;;20.14;60.43;100648.97;6009304;23;102015;-82
2022/08/31 00:35:17;;;;;;;5.55;1.45;;;;;;;20.22;60.23;100661.78;5997292;23;99940;-82
2022/08/31 00:37:42;;;;;;;4.80;1.77;;;;;;;20.25;60.21;100666.91;6037376;23;97907;-83
2022/08/31 00:40:09;;;;;;;3.53;1.30;;;;;;;20.28;59.77;100662.22;6014045;23;97827;-83
2022/08/31 00:42:34;;;;;;;3.55;1.60;;;;;;;20.22;60.13;100662.63;6038062;23;101373;-83
2022/08/31 00:45:00;;;;;;;3.22;1.85;;;;;;;20.18;60.36;100661.13;6037767;23;100161;-83
2022/08/31 00:47:25;;;;;;;3.08;1.60;;;;;;;20.23;60.46;100667.00;6014879;23;97000;-83
2022/08/31 00:49:51;;;;;;;4.03;2.15;;;;;;;20.22;60.61;100667.13;6062673;23;97117;-83
2022/08/31 00:52:23;;;;;;;3.50;1.77;;;;;;;20.23;60.00;100663.47;6038372;23;99860;-83
2022/08/31 00:55:03;;;;;;;4.45;1.77;;;;;;;20.22;59.80;100669.78;6038896;23;101670;-84
2022/08/31 00:57:33;;;;;;;5.45;1.60;;;;;;;20.22;60.09;100672.44;6039138;23;96844;-83
2022/08/31 00:59:59;;;;;;;4.97;1.60;;;;;;;20.16;59.99;100662.19;6013896;23;96859;-83
2022/08/31 01:02:25;;;;;;;5.38;1.92;;;;;;;20.14;60.08;100662.31;6037714;23;101886;-83
2022/08/31 01:04:51;;;;;;;7.93;1.88;;;;;;;20.17;60.08;100669.25;6013660;23;101238;-84
2022/08/31 01:07:16;;;;;;;6.28;1.88;;;;;;;20.09;60.41;100667.94;6013858;23;96677;-83
2022/08/31 01:09:43;;;;;;;2.95;1.70;;;;;;;20.11;60.20;100670.50;6037825;23;96933;-83
2022/08/31 01:12:10;;;;;;;2.88;1.60;;;;;;;20.10;60.03;100666.13;6013824;23;101398;-83
2022/08/31 01:14:36;;;;;;;6.20;1.70;;;;;;;20.20;59.56;100663.69;6038219;23;101280;-83
2022/08/31 01:17:02;;;;;;;2.63;1.80;;;;;;;20.09;60.15;100657.28;6038089;23;96618;-84
2022/08/31 01:19:36;;;;;;;3.20;1.75;;;;;;;20.07;60.24;100653.00;6038917;23;96889;-83
2022/08/31 01:22:22;;;;;;;2.83;1.75;;;;;;;19.97;60.26;100644.81;6037331;23;101860;-83
2022/08/31 01:24:49;;;;;;;5.57;1.90;;;;;;;20.04;60.49;100664.75;6037405;23;101568;-83
2022/08/31 01:27:19;;;;;;;4.43;1.73;;;;;;;19.98;60.74;100656.31;6061601;23;96938;-83
2022/08/31 01:29:44;;;;;;;5.15;1.80;;;;;;;20.03;60.83;100663.03;6037905;23;97366;-82
2022/08/31 01:32:10;;;;;;;2.65;1.77;;;;;;;20.06;61.11;100659.31;6037243;23;101315;-84
2022/08/31 01:34:35;;;;;;;2.75;1.73;;;;;;;20.08;61.04;100662.72;6037339;23;97688;-83
2022/08/31 01:37:01;;;;;;;5.65;1.83;;;;;;;20.02;61.14;100663.16;6013917;23;96656;-84
2022/08/31 01:39:27;;;;;;;4.55;2.00;;;;;;;20.00;61.54;100665.06;6037311;23;96875;-84
2022/08/31 01:41:52;;;;;;;5.82;1.50;;;;;;;20.00;61.41;100657.06;6014489;23;101545;-82
2022/08/31 01:44:25;;;;;;;6.18;1.55;;;;;;;20.03;61.59;100656.84;6013604;23;100893;-83
2022/08/31 01:46:51;;;;;;;4.07;1.90;;;;;;;19.95;61.82;100645.84;6038728;23;96898;-83
2022/08/31 01:49:20;;;;;;;4.10;1.73;;;;;;;20.02;61.45;100661.34;6062760;23;97199;-83
2022/08/31 01:51:47;;;;;;;3.70;1.83;;;;;;;19.94;61.57;100654.81;6037839;23;101234;-83
2022/08/31 01:54:14;;;;;;;4.05;1.50;;;;;;;19.94;62.06;100663.66;6037648;23;101480;-84
2022/08/31 01:56:44;;;;;;;6.55;2.00;;;;;;;19.95;61.88;100673.34;6014748;23;96639;-82
2022/08/31 01:59:16;;;;;;;3.63;1.42;;;;;;;19.88;62.25;100656.09;6015291;23;97211;-83
2022/08/31 02:01:55;;;;;;;3.47;1.63;;;;;;;19.78;62.53;100647.00;6018183;23;101310;-83
2022/08/31 02:04:23;;;;;;;4.13;1.83;;;;;;;19.87;62.63;100657.91;6013092;23;100937;-83
2022/08/31 02:06:56;;;;;;;2.85;1.33;;;;;;;19.90;62.29;100657.69;6039283;23;97207;-82
2022/08/31 02:09:22;;;;;;;3.78;1.70;;;;;;;19.90;62.39;100663.03;6038035;23;97189;-83
2022/08/31 02:11:48;;;;;;;3.42;1.70;;;;;;;19.89;62.51;100663.09;6038839;23;101642;-83
2022/08/31 02:14:14;;;;;;;4.28;1.88;;;;;;;19.81;62.69;100645.00;6037714;23;98099;-84
2022/08/31 02:16:40;;;;;;;4.32;2.05;;;;;;;19.82;62.65;100659.16;6012192;23;97319;-83
2022/08/31 02:19:06;;;;;;;2.97;1.60;;;;;;;19.86;62.47;100660.66;6013521;23;96994;-82
2022/08/31 02:21:32;;;;;;;4.75;1.77;;;;;;;19.77;61.96;100653.28;6038282;23;101334;-83
2022/08/31 02:23:58;;;;;;;4.63;1.95;;;;;;;19.86;61.94;100658.00;6038494;23;101441;-84
2022/08/31 02:26:24;;;;;;;7.20;1.83;;;;;;;19.78;62.45;100647.88;6014710;23;97085;-85
2022/08/31 02:28:50;;;;;;;5.15;1.98;;;;;;;19.72;62.52;100650.91;6038338;23;97200;-84
2022/08/31 02:31:15;;;;;;;5.55;2.20;;;;;;;19.74;62.88;100649.00;6013791;23;101203;-83
2022/08/31 02:33:49;;;;;;;6.55;1.77;;;;;;;19.71;63.15;100648.38;6039098;23;101854;-83
2022/08/31 02:36:15;;;;;;;8.63;2.13;;;;;;;19.61;63.24;100642.78;6036376;23;97004;-83
2022/08/31 02:38:41;;;;;;;8.77;2.10;;;;;;;19.66;62.96;100654.00;6037987;23;97178;-84
2022/08/31 02:41:06;;;;;;;6.97;1.80;;;;;;;19.60;63.56;100641.91;6013225;23;101073;-85
2022/08/31 02:43:34;;;;;;;4.90;1.85;;;;;;;19.64;63.35;100654.09;6014407;23;100481;-83
2022/08/31 02:45:59;;;;;;;3.10;1.90;;;;;;;19.64;63.48;100653.22;6038166;23;96962;-84
2022/08/31 02:48:31;;;;;;;4.25;1.80;;;;;;;19.61;63.25;100646.31;6016818;23;96846;-84
2022/08/31 02:51:06;;;;;;;6.85;2.00;;;;;;;19.59;63.74;100650.88;6036461;23;101473;-85
2022/08/31 02:53:31;;;;;;;8.07;2.30;;;;;;;19.53;63.78;100647.75;6037230;23;101254;-83
2022/08/31 02:55:57;;;;;;;5.82;1.80;;;;;;;19.59;63.83;100660.66;6013257;23;97032;-83
2022/08/31 02:58:22;;;;;;;4.50;1.92;;;;;;;19.59;64.21;100658.00;6037649;23;96764;-83
2022/08/31 03:00:48;;;;;;;6.68;2.10;;;;;;;19.52;64.26;100651.34;6038192;23;98582;-83
2022/08/31 03:03:15;;;;;;;5.68;2.17;;;;;;;19.54;64.49;100644.97;6013284;23;101587;-82
2022/08/31 03:05:42;;;;;;;6.25;1.98;;;;;;;19.55;64.50;100653.84;6013292;23;97381;-82
2022/08/31 03:08:08;;;;;;;3.70;2.30;;;;;;;19.52;64.66;100651.34;6035329;23;97451;-82
2022/08/31 03:10:34;;;;;;;7.22;2.00;;;;;;;19.54;64.65;100658.28;6013677;23;101471;-83
2022/08/31 03:13:00;;;;;;;4.10;2.15;;;;;;;19.45;65.06;100653.59;6013435;23;101690;-85
2022/08/31 03:15:27;;;;;;;4.45;2.15;;;;;;;19.51;64.97;100657.66;6014221;23;96666;-83
2022/08/31 03:17:53;;;;;;;8.57;3.72;;;;;;;19.44;65.30;100657.22;6037584;23;97051;-83
2022/08/31 03:20:22;;;;;;;6.78;2.20;;;;;;;19.40;65.25;100639.72;6013569;23;101630;-84
2022/08/31 03:22:48;;;;;;;5.97;2.25;;;;;;;19.45;65.13;100650.91;6037752;23;101601;-82
2022/08/31 03:25:16;;;;;;;6.22;2.53;;;;;;;19.39;65.24;100657.50;6012694;23;96774;-84
2022/08/31 03:27:42;;;;;;;10.98;2.10;;;;;;;19.34;65.15;100654.28;6062028;23;97211;-83
2022/08/31 03:30:11;;;;;;;6.13;2.33;;;;;;;19.33;65.60;100649.06;6012051;23;101270;-82
2022/08/31 03:32:39;;;;;;;5.60;2.10;;;;;;;19.33;65.87;100663.22;6036614;23;100285;-83
2022/08/31 03:35:06;;;;;;;7.07;2.63;;;;;;;19.37;65.67;100659.44;6036178;23;97085;-83
2022/08/31 03:37:32;;;;;;;8.85;2.20;;;;;;;19.27;65.46;100642.34;6013082;23;97224;-83
2022/08/31 03:39:59;;;;;;;5.43;2.63;;;;;;;19.36;65.17;100663.03;6014128;23;101927;-84
2022/08/31 03:42:26;;;;;;;3.97;2.03;;;;;;;19.29;65.46;100656.41;6013635;23;101158;-82
2022/08/31 03:44:51;;;;;;;5.30;2.17;;;;;;;19.30;65.86;100666.09;6037797;23;97199;-82
2022/08/31 03:47:22;;;;;;;4.95;2.35;;;;;;;19.27;65.29;100650.31;6039395;23;97106;-82
2022/08/31 03:49:48;;;;;;;5.82;2.42;;;;;;;19.31;65.20;100665.13;6013279;23;101147;-84
2022/08/31 03:52:34;;;;;;;5.10;2.28;;;;;;;19.21;65.76;100658.72;6044521;23;99479;-84
2022/08/31 03:55:08;;;;;;;4.88;2.22;;;;;;;19.26;65.51;100648.63;6015206;23;97103;-83
2022/08/31 03:57:34;;;;;;;3.40;2.00;;;;;;;19.31;65.40;100662.47;6013817;23;97509;-82
2022/08/31 03:59:59;;;;;;;6.75;2.30;;;;;;;19.24;65.52;100655.84;6037469;23;100437;-83
2022/08/31 04:02:41;;;;;;;5.23;2.30;;;;;;;19.25;65.46;100660.19;6043398;23;97693;-83
2022/08/31 04:05:29;;;;;;;6.03;2.47;;;;;;;19.23;65.45;100659.47;6065366;23;97248;-84
2022/08/31 04:07:58;;;;;;;8.90;2.85;;;;;;;19.20;65.50;100655.19;6038037;23;97181;-83
2022/08/31 04:10:51;;;;;;;5.57;2.33;;;;;;;19.22;65.76;100655.94;6014287;23;97062;-83
2022/08/31 04:13:31;;;;;;;5.10;2.35;;;;;;;19.22;65.73;100653.28;6065716;23;97818;-85
2022/08/31 04:16:26;;;;;;;5.85;2.40;;;;;;;19.20;65.74;100651.69;6048455;23;97546;-83
2022/08/31 04:19:14;;;;;;;6.82;2.10;;;;;;;19.21;65.59;100651.56;6049554;23;96893;-83
2022/08/31 04:21:49;;;;;;;8.40;3.13;;;;;;;19.20;65.42;100654.34;6039678;23;101900;-83
2022/08/31 04:24:14;;;;;;;6.97;2.35;;;;;;;19.17;65.37;100655.41;6034830;23;100243;-83
2022/08/31 04:26:41;;;;;;;8.48;2.97;;;;;;;19.20;65.51;100654.34;6012581;23;96985;-82
2022/08/31 04:29:08;;;;;;;4.28;2.35;;;;;;;19.11;65.89;100646.94;6060409;23;97100;-85
2022/08/31 04:31:35;;;;;;;4.68;2.60;;;;;;;19.25;65.38;100665.53;6013746;23;101469;-84
2022/08/31 04:34:00;;;;;;;3.55;2.55;;;;;;;19.22;65.15;100653.28;6036402;23;101097;-83
2022/08/31 04:36:27;;;;;;;7.85;2.47;;;;;;;19.19;65.18;100649.97;6013243;23;96834;-86
2022/08/31 04:38:56;;;;;;;4.60;2.05;;;;;;;19.23;65.37;100654.16;6037984;23;97158;-85
2022/08/31 04:41:25;;;;;;;11.30;2.75;;;;;;;19.30;65.19;100663.44;6036761;23;98444;-82
2022/08/31 04:43:54;;;;;;;6.80;2.85;;;;;;;19.30;65.23;100666.09;6036757;23;101528;-85
2022/08/31 04:46:20;;;;;;;7.03;2.58;;;;;;;19.34;64.99;100672.06;6011770;23;98401;-85
2022/08/31 04:48:47;;;;;;;7.72;3.00;;;;;;;19.32;65.01;100666.00;6013260;23;97485;-85
2022/08/31 04:51:19;;;;;;;7.15;2.75;;;;;;;19.29;65.56;100666.22;6036233;23;101545;-84
2022/08/31 04:53:45;;;;;;;6.32;3.08;;;;;;;19.35;65.54;100671.97;6036032;23;101223;-82
2022/08/31 04:56:16;;;;;;;4.13;2.13;;;;;;;19.32;65.37;100672.19;6012740;23;96630;-84
2022/08/31 04:58:48;;;;;;;5.22;2.47;;;;;;;19.38;64.50;100676.25;6037475;23;97233;-84
2022/08/31 05:01:17;;;;;;;5.00;2.60;;;;;;;19.09;64.33;100632.91;6013187;23;101231;-84
2022/08/31 05:04:01;;;;;;;11.40;3.58;;;;;;;19.40;63.93;100675.19;6045237;23;97114;-84
2022/08/31 05:06:29;;;;;;;7.97;3.38;;;;;;;19.41;63.59;100674.22;6013314;23;97107;-84
2022/08/31 05:08:58;;;;;;;6.55;2.90;;;;;;;19.37;63.70;100670.06;6037361;23;97089;-82
2022/08/31 05:11:25;;;;;;;10.98;3.45;;;;;;;19.40;63.73;100683.19;6037002;23;101630;-83
2022/08/31 05:13:52;;;;;;;6.38;2.80;;;;;;;19.35;64.03;100669.31;6013453;23;101454;-83
2022/08/31 05:16:18;;;;;;;6.32;3.20;;;;;;;19.49;63.67;100678.19;6037384;23;97235;-84
2022/08/31 05:18:46;;;;;;;11.60;3.67;;;;;;;19.56;63.47;100695.47;6037577;23;96864;-81
2022/08/31 05:21:17;;;;;;;7.85;3.30;;;;;;;19.58;63.22;100694.44;6012885;23;101105;-84
2022/08/31 05:23:46;;;;;;;5.75;3.50;;;;;;;19.50;63.37;100691.41;6060943;23;101186;-83
2022/08/31 05:26:17;;;;;;;7.60;3.50;;;;;;;19.38;63.66;100693.06;6037134;23;97140;-84
2022/08/31 05:28:42;;;;;;;6.95;3.70;;;;;;;19.47;63.46;100694.28;6063214;23;96765;-81
2022/08/31 05:31:08;;;;;;;9.27;3.75;;;;;;;19.49;63.63;100699.47;6037681;23;101693;-84
2022/08/31 05:33:39;;;;;;;7.97;3.53;;;;;;;19.46;63.75;100703.22;6015337;23;101047;-84
2022/08/31 05:36:05;;;;;;;9.45;3.85;;;;;;;19.37;64.03;100701.13;5990164;23;97766;-85
2022/08/31 05:38:30;;;;;;;9.23;3.55;;;;;;;19.28;64.13;100699.06;5984401;23;97422;-84
2022/08/31 05:40:59;;;;;;;6.43;4.03;;;;;;;19.37;64.24;100714.44;6008628;23;101085;-84
2022/08/31 05:43:25;;;;;;;4.82;3.35;;;;;;;19.27;64.27;100700.88;6008508;23;101698;-85
2022/08/31 05:45:51;;;;;;;9.98;3.53;;;;;;;19.47;64.10;100720.06;6008802;23;96941;-84
2022/08/31 05:48:16;;;;;;;7.40;3.47;;;;;;;19.44;64.18;100727.28;5985011;23;96921;-83
2022/08/31 05:50:43;;;;;;;8.48;3.97;;;;;;;19.43;64.26;100722.03;6008995;23;101147;-84
2022/08/31 05:53:09;;;;;;;6.20;3.15;;;;;;;19.41;64.05;100731.94;6008850;23;98002;-84
2022/08/31 05:55:35;;;;;;;6.43;3.50;;;;;;;19.44;64.22;100737.06;5984951;23;97058;-84
2022/08/31 05:58:00;;;;;;;6.47;3.25;;;;;;;19.42;64.36;100731.81;6008376;23;97024;-84
2022/08/31 06:00:26;;;;;;;7.00;3.45;;;;;;;19.43;64.34;100736.22;6006324;23;98260;-83
2022/08/31 06:03:04;;;;;;;7.90;4.10;;;;;;;19.34;64.26;100734.13;6010154;23;100183;-84
2022/08/31 06:05:30;;;;;;;8.60;3.30;;;;;;;19.34;64.55;100750.09;5984314;23;97209;-84
2022/08/31 06:07:57;;;;;;;8.27;3.95;;;;;;;19.37;64.52;100743.72;5985497;23;97019;-85
2022/08/31 06:10:22;;;;;;;5.88;3.40;;;;;;;19.35;64.56;100746.50;5984906;23;102022;-84
2022/08/31 06:12:48;;;;;;;8.38;3.33;;;;;;;19.33;64.39;100758.19;5986180;23;101086;-84
2022/08/31 06:15:16;;;;;;;6.78;3.63;;;;;;;19.31;64.56;100755.63;5981282;23;97206;-83
2022/08/31 06:17:43;;;;;;;7.25;3.38;;;;;;;19.30;64.60;100753.91;6007472;23;97175;-83
2022/08/31 06:20:10;;;;;;;6.75;3.67;;;;;;;19.31;64.95;100763.59;6031882;23;101553;-82
2022/08/31 06:22:36;;;;;;;5.93;3.42;;;;;;;19.38;64.67;100764.09;5984696;23;101315;-83
2022/08/31 06:25:07;;;;;;;5.78;3.15;;;;;;;19.34;64.58;100759.88;6008092;23;97034;-81
2022/08/31 06:27:37;;;;;;;9.10;3.10;;;;;;;19.36;64.52;100761.50;5984082;23;97644;-83
2022/08/31 06:30:05;;;;;;;6.30;2.92;;;;;;;19.32;64.30;100765.34;6007876;23;100365;-81
2022/08/31 06:32:31;;;;;;;5.38;2.60;;;;;;;19.40;64.30;100762.16;6005690;23;101057;-83
2022/08/31 06:35:06;;;;;;;5.53;3.00;;;;;;;19.36;63.91;100758.84;6019174;23;96742;-83
2022/08/31 06:37:52;;;;;;;8.38;3.03;;;;;;;19.48;63.73;100785.63;6042900;23;97172;-83
2022/08/31 06:40:44;;;;;;;7.30;2.50;;;;;;;19.45;64.05;100782.22;6019960;23;97489;-83
2022/08/31 06:43:42;;;;;;;5.72;2.92;;;;;;;19.37;64.15;100768.56;6013210;23;98804;-83
2022/08/31 06:46:20;;;;;;;6.75;2.90;;;;;;;19.49;64.23;100779.34;6016230;23;97216;-83
2022/08/31 06:49:02;;;;;;;7.22;3.03;;;;;;;19.61;64.25;100774.13;6038805;23;97121;-81
2022/08/31 06:51:35;;;;;;;11.57;3.03;;;;;;;19.62;64.16;100783.81;6033820;23;100985;-81
2022/08/31 06:54:02;;;;;;;5.22;2.88;;;;;;;19.50;64.14;100783.75;6011895;23;101327;-83
2022/08/31 06:57:04;;;;;;;8.93;2.90;;;;;;;19.40;64.50;100783.44;5949845;23;97197;-83
2022/08/31 06:59:51;;;;;;;6.45;3.03;;;;;;;19.36;64.64;100785.47;6036010;23;97059;-82
2022/08/31 07:02:32;;;;;;;6.88;2.72;;;;;;;19.19;65.25;100791.00;6037695;23;101297;-84
2022/08/31 07:04:57;;;;;;;5.65;2.67;;;;;;;19.15;65.20;100771.72;6034046;23;97632;-84
2022/08/31 07:07:23;;;;;;;7.75;3.15;;;;;;;19.15;65.49;100790.34;6011722;23;96965;-83
2022/08/31 07:09:50;;;;;;;6.82;2.53;;;;;;;19.08;65.81;100777.50;6013624;23;97478;-83
2022/08/31 07:12:16;;;;;;;5.80;3.00;;;;;;;19.14;65.80;100793.06;6060897;23;97857;-83
2022/08/31 07:14:41;;;;;;;4.10;2.88;;;;;;;19.06;65.82;100774.09;6012040;23;101441;-83
2022/08/31 07:17:07;;;;;;;4.20;2.50;;;;;;;19.14;66.26;100793.97;6036332;23;97916;-84
2022/08/31 07:19:33;;;;;;;8.35;3.45;;;;;;;19.00;65.99;100778.84;6012063;23;97124;-84
2022/08/31 07:22:04;;;;;;;8.88;3.03;;;;;;;19.04;66.11;100795.47;6012294;23;101707;-84
2022/08/31 07:24:32;;;;;;;4.72;2.83;;;;;;;19.00;66.37;100805.44;6034693;23;101051;-83
2022/08/31 07:27:09;;;;;;;12.05;3.58;;;;;;;18.80;66.40;100768.59;6037197;23;96653;-88
2022/08/31 07:29:40;;;;;;;10.50;3.08;;;;;;;18.85;66.57;100774.47;6014616;23;97139;-83
2022/08/31 07:32:11;;;;;;;8.90;2.88;;;;;;;18.99;66.64;100803.75;6036949;23;101495;-83
2022/08/31 07:34:37;;;;;;;9.30;3.30;;;;;;;18.91;66.86;100792.72;6031270;23;101622;-83
2022/08/31 07:42:45;;;;;;;4.80;2.97;;;;;;;19.01;66.70;100790.34;6040059;23;100628;-84
2022/08/31 07:45:22;;;;;;;8.23;2.95;;;;;;;19.05;66.69;100797.16;6036509;23;101610;-85
2022/08/31 07:47:48;;;;;;;10.82;3.75;;;;;;;19.22;66.98;100814.75;6013601;23;97014;-84
2022/08/31 07:50:17;;;;;;;4.75;2.78;;;;;;;19.22;66.90;100809.44;6036277;23;97422;-84
2022/08/31 07:53:19;;;;;;;7.63;3.28;;;;;;;19.11;67.08;100810.13;5965160;23;97453;-85
2022/08/31 07:56:02;;;;;;;5.72;2.90;;;;;;;18.97;67.32;100805.63;6029796;23;99831;-84
2022/08/31 07:58:38;;;;;;;7.10;3.10;;;;;;;18.97;67.32;100807.44;6040067;23;97024;-84
2022/08/31 08:01:04;;;;;;;6.25;2.65;;;;;;;19.04;67.03;100813.25;6014654;23;97011;-84
2022/08/31 08:03:30;;;;;;;4.45;2.70;;;;;;;19.05;66.97;100810.47;6013225;23;100195;-84
2022/08/31 08:06:15;;;;;;;5.28;2.70;;;;;;;19.13;66.48;100818.00;6044843;23;97028;-85
2022/08/31 08:09:08;;;;;;;10.73;2.90;;;;;;;19.21;66.52;100813.06;6043374;23;97109;-85
2022/08/31 08:12:07;;;;;;;5.65;2.40;;;;;;;19.26;66.08;100818.06;6045829;23;96850;-85
2022/08/31 08:14:56;;;;;;;5.67;2.40;;;;;;;19.27;65.81;100825.13;6067055;23;97080;-83
2022/08/31 08:17:51;;;;;;;12.57;3.72;;;;;;;19.16;65.75;100804.50;6022358;23;97741;-85
2022/08/31 08:20:21;;;;;;;6.40;3.40;;;;;;;19.40;65.51;100820.72;6037348;23;97824;-84
2022/08/31 08:22:47;;;;;;;9.07;3.72;;;;;;;19.34;66.21;100816.63;6012881;23;96905;-84
2022/08/31 08:25:39;;;;;;;10.32;3.30;;;;;;;19.45;65.63;100830.13;6046030;23;98289;-84
2022/08/31 08:28:26;;;;;;;4.32;2.25;;;;;;;19.42;65.44;100814.34;6042450;23;99072;-84
2022/08/31 08:30:53;;;;;;;6.03;2.75;;;;;;;19.50;65.32;100815.69;6012370;23;96698;-83
2022/08/31 08:33:21;;;;;;;7.13;2.75;;;;;;;19.74;64.76;100827.47;6035885;23;96939;-83
2022/08/31 08:35:59;;;;;;;6.88;2.47;;;;;;;19.77;64.68;100824.59;6036749;23;101146;-83
2022/08/31 08:38:25;;;;;;;7.15;3.03;;;;;;;19.52;65.06;100809.31;6012811;23;100309;-83
2022/08/31 08:40:52;;;;;;;7.05;3.28;;;;;;;19.66;64.88;100833.28;6038722;23;96651;-84
2022/08/31 08:43:20;;;;;;;7.97;2.78;;;;;;;19.64;64.80;100829.84;6012590;23;96792;-83
2022/08/31 08:45:50;;;;;;;4.10;2.58;;;;;;;19.61;64.54;100831.84;6011016;23;101239;-83
2022/08/31 08:48:25;;;;;;;5.47;2.40;;;;;;;19.56;64.22;100829.47;6011451;23;101627;-83
2022/08/31 08:50:52;;;;;;;4.75;2.63;;;;;;;19.63;64.57;100837.91;6032187;23;97151;-81
2022/08/31 08:53:27;;;;;;;6.18;2.72;;;;;;;19.68;64.41;100839.34;6035449;23;97162;-84
2022/08/31 08:56:10;;;;;;;6.60;3.42;;;;;;;19.59;64.22;100836.41;6017395;23;101888;-85
2022/08/31 08:58:39;;;;;;;6.57;2.35;;;;;;;19.42;64.35;100809.03;6036330;23;100259;-87
2022/08/31 09:01:10;;;;;;;6.85;2.72;;;;;;;19.60;64.79;100844.28;6036988;23;97411;-87
2022/08/31 09:03:51;;;;;;;6.80;3.10;;;;;;;19.66;64.60;100838.63;6044044;23;97520;-93
2022/08/31 09:06:53;;;;;;;7.07;2.75;;;;;;;19.65;64.83;100839.56;6047165;23;98025;-88
2022/08/31 09:09:29;;;;;;;6.20;2.97;;;;;;;19.57;64.72;100825.84;6030586;23;99013;-86
2022/08/31 09:12:17;;;;;;;5.55;2.20;;;;;;;19.63;64.68;100840.56;6011092;23;97848;-86
2022/08/31 09:15:15;;;;;;;3.95;2.17;;;;;;;19.66;64.47;100843.94;6034974;23;97080;-87
2022/08/31 09:17:57;;;;;;;3.65;2.00;;;;;;;19.65;64.74;100820.91;6058932;23;101223;-88
2022/08/31 09:20:22;;;;;;;4.15;2.40;;;;;;;19.76;64.43;100827.38;6057489;23;101091;-83
2022/08/31 09:22:51;;;;;;;9.80;3.10;;;;;;;19.93;64.29;100844.94;6033264;23;97034;-82
2022/08/31 09:25:28;;;;;;;7.85;2.92;;;;;;;19.72;64.17;100820.50;6031646;23;97171;-83
2022/08/31 09:28:13;;;;;;;3.38;1.88;;;;;;;19.78;64.07;100833.44;6041857;23;97193;-83
2022/08/31 09:30:42;;;;;;;3.17;1.73;;;;;;;19.85;63.95;100843.59;6033148;23;99755;-84
2022/08/31 09:33:18;;;;;;;6.72;2.15;;;;;;;19.97;64.02;100827.78;6057258;23;97346;-83
2022/08/31 09:35:44;;;;;;;5.90;2.10;;;;;;;19.95;63.63;100833.19;6055460;23;97116;-83
2022/08/31 09:38:16;;;;;;;3.05;2.03;;;;;;;19.95;63.37;100832.34;6008655;23;99921;-82
2022/08/31 09:40:47;;;;;;;6.10;2.08;;;;;;;20.08;63.17;100833.28;6007633;23;99897;-83
2022/08/31 09:43:27;;;;;;;5.80;2.00;;;;;;;20.15;63.22;100834.56;6032558;23;97306;-74
2022/08/31 09:46:01;;;;;;;6.43;2.30;;;;;;;20.12;62.45;100816.97;6033114;23;97220;-75
2022/08/31 09:48:44;;;;;;;6.95;2.85;;;;;;;20.19;62.57;100821.88;6030452;23;101384;-78
2022/08/31 09:51:20;;;;;;;6.63;2.05;;;;;;;20.21;62.28;100814.66;6061354;23;101027;-82
2022/08/31 09:56:30;;;;;;;3.42;1.70;;;;;;;20.29;61.88;100809.66;6041022;23;97163;-83
2022/08/31 09:59:01;;;;;;;5.95;2.00;;;;;;;20.44;61.46;100811.28;6036643;23;101387;-82
2022/08/31 10:01:41;;;;;;;7.63;1.70;;;;;;;20.54;60.24;100816.91;6035411;23;100917;-82
2022/08/31 10:04:16;;;;;;;2.97;1.75;;;;;;;20.62;59.83;100822.53;6060924;23;97159;-82
2022/08/31 10:06:51;;;;;;;3.88;1.92;;;;;;;20.76;59.77;100821.59;6056752;23;96904;-82
2022/08/31 10:09:34;;;;;;;2.70;1.40;;;;;;;20.76;59.53;100794.94;6086123;23;97942;-83
2022/08/31 10:12:04;;;;;;;2.65;1.67;;;;;;;20.98;59.04;100805.84;6037111;23;101391;-82
2022/08/31 10:14:40;;;;;;;3.20;1.40;;;;;;;21.24;58.39;100812.00;6035215;23;97159;-82
2022/08/31 10:17:27;;;;;;;2.40;1.38;;;;;;;21.36;57.69;100812.97;6061765;23;97022;-83
2022/08/31 10:20:05;;;;;;;3.42;1.60;;;;;;;21.54;57.76;100810.78;6034997;23;100916;-82
2022/08/31 10:22:39;;;;;;;3.92;1.58;;;;;;;21.71;56.93;100814.91;6060619;23;101137;-81
2022/08/31 10:25:30;;;;;;;4.40;1.50;;;;;;;21.86;56.35;100803.09;6037329;23;97202;-83
2022/08/31 10:28:06;;;;;;;4.47;1.83;;;;;;;22.06;55.98;100795.44;6060112;23;97122;-76
2022/08/31 10:30:39;;;;;;;5.63;1.25;;;;;;;21.87;55.45;100783.41;6032938;23;99106;-76
2022/08/31 10:33:13;;;;;;;4.10;1.48;;;;;;;22.03;55.53;100796.50;6034692;23;101235;-76
2022/08/31 10:35:53;;;;;;;2.60;1.20;;;;;;;21.95;55.70;100795.38;6033325;23;97198;-75
2022/08/31 10:38:33;;;;;;;1.30;1.00;;;;;;;22.05;55.05;100791.91;6033664;23;97248;-78
2022/08/31 10:41:00;;;;;;;3.50;1.48;;;;;;;22.15;54.88;100797.41;6009432;23;101374;-76
2022/08/31 10:43:56;;;;;;;5.78;1.38;;;;;;;22.14;54.67;100785.88;6032666;23;101589;-78
2022/08/31 10:46:22;;;;;;;3.67;1.60;;;;;;;22.27;54.48;100779.63;6031569;23;97320;-76
2022/08/31 10:48:53;;;;;;;3.95;1.30;;;;;;;22.41;53.84;100775.91;6034599;23;96998;-75
2022/08/31 10:51:19;;;;;;;2.33;1.08;;;;;;;22.44;52.95;100786.38;6057916;23;98068;-80
2022/08/31 10:53:57;;;;;;;2.25;1.60;;;;;;;22.42;53.16;100782.94;6031781;23;101314;-76
2022/08/31 10:57:01;;;;;;;4.57;1.60;;;;;;;22.58;54.29;100781.66;6057254;23;97109;-76
2022/08/31 10:59:45;;;;;;;2.67;1.33;;;;;;;22.70;54.42;100782.53;6057819;23;97241;-76
2022/08/31 11:02:16;;;;;;;2.42;1.50;;;;;;;22.67;52.26;100782.78;6034298;23;101161;-76
2022/08/31 11:04:51;;;;;;;2.58;1.40;;;;;;;22.50;52.07;100768.03;6057499;23;97907;-76
2022/08/31 11:07:24;;;;;;;2.92;1.40;;;;;;;22.45;51.75;100780.88;6034964;23;97271;-77
2022/08/31 11:10:05;;;;;;;4.90;1.80;;;;;;;22.41;52.94;100773.22;6035767;23;96952;-76
2022/08/31 11:12:42;;;;;;;5.00;1.70;;;;;;;22.18;51.82;100772.31;6082929;23;98058;-76
2022/08/31 11:15:46;;;;;;;6.00;1.88;;;;;;;22.03;53.13;100769.78;6061275;23;97868;-76
2022/08/31 11:18:38;;;;;;;6.22;2.03;;;;;;;21.89;53.74;100773.47;6060115;23;96693;-75
2022/08/31 11:21:04;;;;;;;6.22;2.00;;;;;;;21.77;54.56;100769.03;6037399;23;97083;-76
2022/08/31 11:23:43;;;;;;;4.25;1.45;;;;;;;21.76;54.56;100777.16;6034897;23;100838;-76
2022/08/31 11:26:30;;;;;;;5.47;1.90;;;;;;;21.60;56.85;100756.94;6036152;23;101238;-77
2022/08/31 11:29:08;;;;;;;6.35;2.00;;;;;;;21.68;55.92;100775.91;6036453;23;96731;-76
2022/08/31 11:31:34;;;;;;;3.38;1.38;;;;;;;21.51;55.43;100773.63;6013008;23;97101;-75
2022/08/31 11:34:11;;;;;;;5.53;2.17;;;;;;;21.25;55.58;100759.47;6060905;23;97389;-74
2022/08/31 11:36:48;;;;;;;4.78;1.85;;;;;;;21.38;55.81;100779.03;6034091;23;101050;-75
2022/08/31 11:39:34;;;;;;;5.45;1.75;;;;;;;21.39;56.07;100775.38;6010688;23;96705;-75
2022/08/31 11:42:36;;;;;;;5.07;1.77;;;;;;;21.45;56.08;100769.59;6059350;23;97010;-82
2022/08/31 11:45:02;;;;;;;3.70;1.58;;;;;;;21.36;54.80;100772.94;6060421;23;101157;-80
2022/08/31 11:47:27;;;;;;;5.05;1.83;;;;;;;21.34;55.08;100772.13;6058948;23;97382;-81
2022/08/31 11:50:02;;;;;;;4.40;1.58;;;;;;;21.44;54.77;100764.38;6059605;23;96608;-80
2022/08/31 11:52:49;;;;;;;9.00;2.30;;;;;;;21.50;54.98;100760.38;6034606;23;96822;-82
2022/08/31 11:55:44;;;;;;;5.28;1.70;;;;;;;21.67;54.53;100766.22;6034965;23;101149;-82
2022/08/31 11:58:24;;;;;;;7.18;1.40;;;;;;;21.66;53.67;100761.81;6033194;23;100128;-81